Terminal Aerodrome Forecast
Issued by NWS

Current Version | Previous Version | Graphics & Text | Print | Product List | Glossary On
Versions: 1 2 3 4 5 6 7 8 9 10 11 12 13 14 15 16 17 18 19 20 21 22 23
000
FTUS41 KRLX 231200 AAA
TAFCKB
TAF AMD
KCKB 231259Z 2313/2412 28005KT P6SM OVC015
     FM231600 30006KT P6SM BKN025
     FM231900 29005KT P6SM BKN035
     FM232300 28004KT P6SM SCT035
     FM240600 00000KT 3SM BR SCT025
     FM241000 00000KT 5SM BR SCT050
     FM241100 00000KT P6SM SCT100=

USA.gov is the U.S. government's official web portal to all federal, state and local government web resources and services.